sensor_id;sensor_type;location;lat;lon;timestamp;pressure;altitude;pressure_sealevel;temperature;humidity
8941;BME280;4505;43.406;23.226;2022-12-07T00:01:15;100045.28;;;6.03;100.00
8941;BME280;4505;43.406;23.226;2022-12-07T00:03:43;100053.88;;;5.84;100.00
8941;BME280;4505;43.406;23.226;2022-12-07T00:06:11;100046.25;;;5.68;100.00
8941;BME280;4505;43.406;23.226;2022-12-07T00:08:38;100039.22;;;6.09;100.00
8941;BME280;4505;43.406;23.226;2022-12-07T00:11:08;100048.97;;;6.15;100.00
8941;BME280;4505;43.406;23.226;2022-12-07T00:13:35;100046.06;;;5.97;100.00
8941;BME280;4505;43.406;23.226;2022-12-07T00:16:02;100037.09;;;6.39;100.00
8941;BME280;4505;43.406;23.226;2022-12-07T00:18:29;100034.00;;;6.22;100.00
8941;BME280;4505;43.406;23.226;2022-12-07T00:20:59;100023.06;;;6.25;100.00
8941;BME280;4505;43.406;23.226;2022-12-07T00:23:25;100021.19;;;6.13;100.00
8941;BME280;4505;43.406;23.226;2022-12-07T00:25:52;100030.75;;;6.27;100.00
8941;BME280;4505;43.406;23.226;2022-12-07T00:28:28;100028.50;;;6.17;100.00
8941;BME280;4505;43.406;23.226;2022-12-07T00:30:59;100022.19;;;5.77;100.00
8941;BME280;4505;43.406;23.226;2022-12-07T00:33:25;100013.97;;;5.87;100.00
8941;BME280;4505;43.406;23.226;2022-12-07T00:35:54;100014.25;;;6.05;100.00
8941;BME280;4505;43.406;23.226;2022-12-07T00:38:21;100019.03;;;6.29;100.00
8941;BME280;4505;43.406;23.226;2022-12-07T00:40:53;100013.78;;;6.36;100.00
8941;BME280;4505;43.406;23.226;2022-12-07T00:43:19;100015.63;;;6.48;100.00
8941;BME280;4505;43.406;23.226;2022-12-07T00:45:47;100024.16;;;6.50;100.00
8941;BME280;4505;43.406;23.226;2022-12-07T00:48:14;100028.78;;;6.42;100.00
8941;BME280;4505;43.406;23.226;2022-12-07T00:50:40;100038.25;;;6.23;100.00
8941;BME280;4505;43.406;23.226;2022-12-07T00:53:07;100057.00;;;5.94;100.00
8941;BME280;4505;43.406;23.226;2022-12-07T00:55:34;100049.25;;;5.93;100.00
8941;BME280;4505;43.406;23.226;2022-12-07T00:58:01;100042.97;;;5.87;100.00
8941;BME280;4505;43.406;23.226;2022-12-07T01:00:27;100038.53;;;5.94;100.00
8941;BME280;4505;43.406;23.226;2022-12-07T01:02:55;100029.50;;;6.16;100.00
8941;BME280;4505;43.406;23.226;2022-12-07T01:05:22;100033.66;;;6.38;100.00
8941;BME280;4505;43.406;23.226;2022-12-07T01:07:48;100040.16;;;5.67;100.00
8941;BME280;4505;43.406;23.226;2022-12-07T01:10:15;100038.50;;;5.60;100.00
8941;BME280;4505;43.406;23.226;2022-12-07T01:12:56;100038.03;;;5.50;100.00
8941;BME280;4505;43.406;23.226;2022-12-07T01:15:22;100035.25;;;5.30;100.00
8941;BME280;4505;43.406;23.226;2022-12-07T01:17:49;100039.31;;;5.60;100.00
8941;BME280;4505;43.406;23.226;2022-12-07T01:20:17;100035.69;;;5.61;100.00
8941;BME280;4505;43.406;23.226;2022-12-07T01:22:57;100040.16;;;5.67;100.00
8941;BME280;4505;43.406;23.226;2022-12-07T01:25:24;100036.81;;;5.46;100.00
8941;BME280;4505;43.406;23.226;2022-12-07T01:27:51;100047.44;;;5.31;100.00
8941;BME280;4505;43.406;23.226;2022-12-07T01:30:18;100051.09;;;5.37;100.00
8941;BME280;4505;43.406;23.226;2022-12-07T01:32:44;100040.41;;;5.17;100.00
8941;BME280;4505;43.406;23.226;2022-12-07T01:35:11;100026.19;;;5.33;100.00
8941;BME280;4505;43.406;23.226;2022-12-07T01:37:42;100010.56;;;5.65;100.00
8941;BME280;4505;43.406;23.226;2022-12-07T01:40:24;99999.25;;;6.06;100.00
8941;BME280;4505;43.406;23.226;2022-12-07T01:42:51;100013.31;;;5.51;100.00
8941;BME280;4505;43.406;23.226;2022-12-07T01:48:02;100023.56;;;5.12;100.00
8941;BME280;4505;43.406;23.226;2022-12-07T01:50:44;100017.09;;;5.42;100.00
8941;BME280;4505;43.406;23.226;2022-12-07T01:53:12;100011.81;;;5.69;100.00
8941;BME280;4505;43.406;23.226;2022-12-07T01:55:45;100014.97;;;5.52;100.00
8941;BME280;4505;43.406;23.226;2022-12-07T01:58:19;100021.72;;;5.67;100.00
8941;BME280;4505;43.406;23.226;2022-12-07T02:00:46;100008.91;;;5.86;100.00
8941;BME280;4505;43.406;23.226;2022-12-07T02:03:14;100005.06;;;5.95;100.00
8941;BME280;4505;43.406;23.226;2022-12-07T02:05:44;99988.13;;;6.17;100.00
8941;BME280;4505;43.406;23.226;2022-12-07T02:08:13;99992.63;;;6.23;100.00
8941;BME280;4505;43.406;23.226;2022-12-07T02:10:49;99987.78;;;6.26;100.00
8941;BME280;4505;43.406;23.226;2022-12-07T02:13:16;99988.91;;;6.04;100.00
8941;BME280;4505;43.406;23.226;2022-12-07T02:15:51;99989.38;;;5.80;100.00
8941;BME280;4505;43.406;23.226;2022-12-07T02:18:22;99992.09;;;5.93;100.00
8941;BME280;4505;43.406;23.226;2022-12-07T02:20:53;99990.25;;;5.87;100.00
8941;BME280;4505;43.406;23.226;2022-12-07T02:23:30;99984.06;;;6.14;100.00
8941;BME280;4505;43.406;23.226;2022-12-07T02:26:10;99985.47;;;6.04;100.00
8941;BME280;4505;43.406;23.226;2022-12-07T02:28:56;99987.09;;;6.11;100.00
8941;BME280;4505;43.406;23.226;2022-12-07T02:31:29;99979.59;;;6.08;100.00
8941;BME280;4505;43.406;23.226;2022-12-07T02:33:57;99972.66;;;6.01;100.00
8941;BME280;4505;43.406;23.226;2022-12-07T02:36:30;99960.63;;;6.39;100.00
8941;BME280;4505;43.406;23.226;2022-12-07T02:38:58;99959.63;;;6.59;100.00
8941;BME280;4505;43.406;23.226;2022-12-07T02:41:27;99963.31;;;6.58;100.00
8941;BME280;4505;43.406;23.226;2022-12-07T02:43:57;99946.41;;;6.46;100.00
8941;BME280;4505;43.406;23.226;2022-12-07T02:46:27;99946.19;;;6.28;100.00
8941;BME280;4505;43.406;23.226;2022-12-07T02:48:55;99953.69;;;6.38;100.00
8941;BME280;4505;43.406;23.226;2022-12-07T02:51:24;99940.94;;;6.41;100.00
8941;BME280;4505;43.406;23.226;2022-12-07T02:53:51;99942.53;;;6.29;100.00
8941;BME280;4505;43.406;23.226;2022-12-07T02:56:19;99945.78;;;6.38;100.00
8941;BME280;4505;43.406;23.226;2022-12-07T02:58:50;99941.13;;;6.40;100.00
8941;BME280;4505;43.406;23.226;2022-12-07T03:01:25;99947.84;;;6.42;100.00
8941;BME280;4505;43.406;23.226;2022-12-07T03:03:56;99945.19;;;6.36;100.00
8941;BME280;4505;43.406;23.226;2022-12-07T03:06:27;99941.13;;;6.33;100.00
8941;BME280;4505;43.406;23.226;2022-12-07T03:08:59;99946.19;;;6.35;100.00
8941;BME280;4505;43.406;23.226;2022-12-07T03:11:32;99944.13;;;6.24;100.00
8941;BME280;4505;43.406;23.226;2022-12-07T03:14:06;99941.16;;;6.53;100.00
8941;BME280;4505;43.406;23.226;2022-12-07T03:16:42;99940.94;;;6.41;100.00
8941;BME280;4505;43.406;23.226;2022-12-07T03:19:15;99951.91;;;6.45;100.00
8941;BME280;4505;43.406;23.226;2022-12-07T03:21:43;99950.28;;;6.57;100.00
8941;BME280;4505;43.406;23.226;2022-12-07T03:24:12;99940.78;;;6.75;100.00
8941;BME280;4505;43.406;23.226;2022-12-07T03:26:41;99937.91;;;6.70;100.00
8941;BME280;4505;43.406;23.226;2022-12-07T03:29:10;99935.06;;;6.52;100.00
8941;BME280;4505;43.406;23.226;2022-12-07T03:31:39;99929.97;;;6.38;100.00
8941;BME280;4505;43.406;23.226;2022-12-07T03:34:09;99934.44;;;6.63;100.00
8941;BME280;4505;43.406;23.226;2022-12-07T03:36:39;99927.97;;;6.72;100.00
8941;BME280;4505;43.406;23.226;2022-12-07T03:39:08;99927.78;;;6.67;100.00
8941;BME280;4505;43.406;23.226;2022-12-07T03:41:39;99919.00;;;6.41;100.00
8941;BME280;4505;43.406;23.226;2022-12-07T03:44:06;99922.88;;;6.38;100.00
8941;BME280;4505;43.406;23.226;2022-12-07T03:46:35;99926.94;;;6.47;100.00
8941;BME280;4505;43.406;23.226;2022-12-07T03:49:08;99950.88;;;6.39;100.00
8941;BME280;4505;43.406;23.226;2022-12-07T03:51:39;99938.09;;;6.56;100.00
8941;BME280;4505;43.406;23.226;2022-12-07T03:54:08;99943.19;;;6.64;100.00
8941;BME280;4505;43.406;23.226;2022-12-07T03:56:36;99927.75;;;6.54;100.00
8941;BME280;4505;43.406;23.226;2022-12-07T03:59:04;99935.47;;;6.56;100.00
8941;BME280;4505;43.406;23.226;2022-12-07T04:01:31;99934.84;;;6.47;100.00
8941;BME280;4505;43.406;23.226;2022-12-07T04:03:58;99931.19;;;6.42;100.00
8941;BME280;4505;43.406;23.226;2022-12-07T04:06:26;99931.84;;;6.50;100.00
8941;BME280;4505;43.406;23.226;2022-12-07T04:08:52;99927.16;;;6.65;100.00
8941;BME280;4505;43.406;23.226;2022-12-07T04:11:19;99932.81;;;6.49;100.00
8941;BME280;4505;43.406;23.226;2022-12-07T04:13:46;99930.63;;;6.72;100.00
8941;BME280;4505;43.406;23.226;2022-12-07T04:16:30;99920.06;;;6.79;100.00
8941;BME280;4505;43.406;23.226;2022-12-07T04:18:56;99920.28;;;6.84;100.00
8941;BME280;4505;43.406;23.226;2022-12-07T04:21:23;99918.00;;;6.81;100.00
8941;BME280;4505;43.406;23.226;2022-12-07T04:23:51;99915.19;;;6.56;100.00
8941;BME280;4505;43.406;23.226;2022-12-07T04:26:17;99904.03;;;6.61;100.00
8941;BME280;4505;43.406;23.226;2022-12-07T04:28:44;99894.88;;;6.31;100.00
8941;BME280;4505;43.406;23.226;2022-12-07T04:31:11;99898.09;;;6.33;100.00
8941;BME280;4505;43.406;23.226;2022-12-07T04:33:37;99897.09;;;6.34;100.00
8941;BME280;4505;43.406;23.226;2022-12-07T04:36:04;99891.00;;;6.27;100.00
8941;BME280;4505;43.406;23.226;2022-12-07T04:38:45;99883.31;;;6.32;100.00
8941;BME280;4505;43.406;23.226;2022-12-07T04:41:13;99887.78;;;6.51;100.00
8941;BME280;4505;43.406;23.226;2022-12-07T04:43:39;99885.34;;;6.36;100.00
8941;BME280;4505;43.406;23.226;2022-12-07T04:46:06;99885.75;;;6.33;100.00
8941;BME280;4505;43.406;23.226;2022-12-07T04:48:33;99888.94;;;6.09;100.00
8941;BME280;4505;43.406;23.226;2022-12-07T04:50:59;99879.25;;;6.23;100.00
8941;BME280;4505;43.406;23.226;2022-12-07T04:53:26;99885.50;;;6.15;100.00
8941;BME280;4505;43.406;23.226;2022-12-07T04:55:53;99890.19;;;6.20;100.00
8941;BME280;4505;43.406;23.226;2022-12-07T04:58:21;99888.31;;;5.94;100.00
8941;BME280;4505;43.406;23.226;2022-12-07T05:00:47;99879.59;;;6.00;100.00
8941;BME280;4505;43.406;23.226;2022-12-07T05:03:14;99883.41;;;5.91;100.00
8941;BME280;4505;43.406;23.226;2022-12-07T05:05:40;99880.84;;;6.11;100.00
8941;BME280;4505;43.406;23.226;2022-12-07T05:08:07;99888.34;;;6.20;100.00
8941;BME280;4505;43.406;23.226;2022-12-07T05:10:34;99885.53;;;6.35;100.00
8941;BME280;4505;43.406;23.226;2022-12-07T05:13:00;99891.22;;;6.32;100.00
8941;BME280;4505;43.406;23.226;2022-12-07T05:15:28;99893.03;;;6.18;100.00
8941;BME280;4505;43.406;23.226;2022-12-07T05:17:55;99883.28;;;6.25;100.00
8941;BME280;4505;43.406;23.226;2022-12-07T05:20:21;99881.47;;;6.19;100.00
8941;BME280;4505;43.406;23.226;2022-12-07T05:22:48;99872.75;;;6.38;100.00
8941;BME280;4505;43.406;23.226;2022-12-07T05:25:15;99877.59;;;6.15;100.00
8941;BME280;4505;43.406;23.226;2022-12-07T05:27:41;99875.59;;;6.37;100.00
8941;BME280;4505;43.406;23.226;2022-12-07T05:30:08;99871.94;;;6.31;100.00
8941;BME280;4505;43.406;23.226;2022-12-07T05:32:36;99877.22;;;6.31;100.00
8941;BME280;4505;43.406;23.226;2022-12-07T05:35:03;99875.41;;;6.32;100.00
8941;BME280;4505;43.406;23.226;2022-12-07T05:37:30;99880.25;;;6.28;100.00
8941;BME280;4505;43.406;23.226;2022-12-07T05:39:57;99877.00;;;6.20;100.00
8941;BME280;4505;43.406;23.226;2022-12-07T05:42:23;99882.09;;;6.47;100.00
8941;BME280;4505;43.406;23.226;2022-12-07T05:44:50;99882.09;;;6.21;100.00
8941;BME280;4505;43.406;23.226;2022-12-07T05:47:17;99886.16;;;6.37;100.00
8941;BME280;4505;43.406;23.226;2022-12-07T05:49:45;99885.13;;;6.44;100.00
8941;BME280;4505;43.406;23.226;2022-12-07T05:52:11;99887.97;;;6.49;100.00
8941;BME280;4505;43.406;23.226;2022-12-07T05:54:38;99895.16;;;5.82;100.00
8941;BME280;4505;43.406;23.226;2022-12-07T05:57:05;99898.63;;;5.89;100.00
8941;BME280;4505;43.406;23.226;2022-12-07T05:59:32;99891.44;;;5.63;100.00
8941;BME280;4505;43.406;23.226;2022-12-07T06:01:58;99897.00;;;5.88;100.00
8941;BME280;4505;43.406;23.226;2022-12-07T06:04:26;99896.91;;;6.29;100.00
8941;BME280;4505;43.406;23.226;2022-12-07T06:06:54;99898.53;;;6.49;100.00
8941;BME280;4505;43.406;23.226;2022-12-07T06:09:22;99893.66;;;6.40;100.00
8941;BME280;4505;43.406;23.226;2022-12-07T06:11:49;99898.72;;;6.41;100.00
8941;BME280;4505;43.406;23.226;2022-12-07T06:14:33;99893.06;;;6.70;100.00
8941;BME280;4505;43.406;23.226;2022-12-07T06:17:00;99905.78;;;6.08;100.00
8941;BME280;4505;43.406;23.226;2022-12-07T06:19:26;99894.03;;;6.24;100.00
8941;BME280;4505;43.406;23.226;2022-12-07T06:21:55;99888.19;;;6.48;100.00
8941;BME280;4505;43.406;23.226;2022-12-07T06:24:21;99893.88;;;6.51;100.00
8941;BME280;4505;43.406;23.226;2022-12-07T06:26:49;99891.25;;;6.77;100.00
8941;BME280;4505;43.406;23.226;2022-12-07T06:29:16;99900.16;;;6.63;100.00
8941;BME280;4505;43.406;23.226;2022-12-07T06:31:42;99894.25;;;6.22;100.00
8941;BME280;4505;43.406;23.226;2022-12-07T06:34:10;99898.28;;;5.58;100.00
8941;BME280;4505;43.406;23.226;2022-12-07T06:36:51;99903.31;;;5.53;100.00
8941;BME280;4505;43.406;23.226;2022-12-07T06:39:23;99905.34;;;5.57;100.00
8941;BME280;4505;43.406;23.226;2022-12-07T06:41:50;99906.19;;;5.58;100.00
8941;BME280;4505;43.406;23.226;2022-12-07T06:44:18;99911.81;;;5.48;100.00
8941;BME280;4505;43.406;23.226;2022-12-07T06:46:44;99913.22;;;5.51;100.00
8941;BME280;4505;43.406;23.226;2022-12-07T06:49:11;99911.69;;;5.69;100.00
8941;BME280;4505;43.406;23.226;2022-12-07T06:51:38;99916.25;;;5.89;100.00
8941;BME280;4505;43.406;23.226;2022-12-07T06:54:06;99907.59;;;6.01;100.00
8941;BME280;4505;43.406;23.226;2022-12-07T06:56:34;99908.34;;;5.89;100.00
8941;BME280;4505;43.406;23.226;2022-12-07T06:59:01;99908.97;;;5.84;100.00
8941;BME280;4505;43.406;23.226;2022-12-07T07:01:28;99904.44;;;5.78;100.00
8941;BME280;4505;43.406;23.226;2022-12-07T07:03:55;99908.88;;;5.71;100.00
8941;BME280;4505;43.406;23.226;2022-12-07T07:06:21;99906.88;;;5.73;100.00
8941;BME280;4505;43.406;23.226;2022-12-07T07:08:48;99898.31;;;5.64;100.00
8941;BME280;4505;43.406;23.226;2022-12-07T07:11:14;99894.97;;;5.90;100.00
8941;BME280;4505;43.406;23.226;2022-12-07T07:13:45;99896.63;;;5.98;100.00
8941;BME280;4505;43.406;23.226;2022-12-07T07:16:12;99893.03;;;6.44;100.00
8941;BME280;4505;43.406;23.226;2022-12-07T07:18:38;99902.22;;;6.74;100.00
8941;BME280;4505;43.406;23.226;2022-12-07T07:21:05;99901.19;;;6.88;100.00
8941;BME280;4505;43.406;23.226;2022-12-07T07:23:32;99899.94;;;6.71;100.00
8941;BME280;4505;43.406;23.226;2022-12-07T07:25:59;99895.06;;;6.88;100.00
8941;BME280;4505;43.406;23.226;2022-12-07T07:28:25;99898.28;;;7.22;100.00
8941;BME280;4505;43.406;23.226;2022-12-07T07:30:53;99897.47;;;7.28;100.00
8941;BME280;4505;43.406;23.226;2022-12-07T07:33:20;99901.94;;;7.21;100.00
8941;BME280;4505;43.406;23.226;2022-12-07T07:35:47;99895.19;;;7.39;100.00
8941;BME280;4505;43.406;23.226;2022-12-07T07:38:27;99888.09;;;7.32;100.00
8941;BME280;4505;43.406;23.226;2022-12-07T07:40:55;99883.41;;;7.35;100.00
8941;BME280;4505;43.406;23.226;2022-12-07T07:43:21;99883.16;;;7.49;100.00
8941;BME280;4505;43.406;23.226;2022-12-07T07:45:48;99892.84;;;7.04;100.00
8941;BME280;4505;43.406;23.226;2022-12-07T07:48:16;99889.97;;;7.19;100.00
8941;BME280;4505;43.406;23.226;2022-12-07T07:50:43;99883.84;;;7.32;100.00
8941;BME280;4505;43.406;23.226;2022-12-07T07:53:09;99891.34;;;7.35;100.00
8941;BME280;4505;43.406;23.226;2022-12-07T07:55:36;99888.25;;;7.51;100.00
8941;BME280;4505;43.406;23.226;2022-12-07T07:58:19;99894.81;;;7.28;100.00
8941;BME280;4505;43.406;23.226;2022-12-07T08:00:51;99893.38;;;7.32;100.00
8941;BME280;4505;43.406;23.226;2022-12-07T08:03:19;99897.19;;;7.50;100.00
8941;BME280;4505;43.406;23.226;2022-12-07T08:05:48;99892.69;;;7.50;100.00
8941;BME280;4505;43.406;23.226;2022-12-07T08:08:16;99897.25;;;7.81;100.00
8941;BME280;4505;43.406;23.226;2022-12-07T08:10:43;99889.69;;;7.47;100.00
8941;BME280;4505;43.406;23.226;2022-12-07T08:13:11;99896.72;;;7.66;100.00
8941;BME280;4505;43.406;23.226;2022-12-07T08:15:39;99888.13;;;7.77;100.00
8941;BME280;4505;43.406;23.226;2022-12-07T08:18:06;99870.81;;;7.81;100.00
8941;BME280;4505;43.406;23.226;2022-12-07T08:20:35;99867.78;;;7.33;100.00
8941;BME280;4505;43.406;23.226;2022-12-07T08:23:02;99879.44;;;7.63;100.00
8941;BME280;4505;43.406;23.226;2022-12-07T08:25:29;99883.31;;;7.67;100.00
8941;BME280;4505;43.406;23.226;2022-12-07T08:27:56;99892.38;;;8.22;100.00
8941;BME280;4505;43.406;23.226;2022-12-07T08:30:22;99885.59;;;8.32;100.00
8941;BME280;4505;43.406;23.226;2022-12-07T08:32:49;99881.81;;;8.46;100.00
8941;BME280;4505;43.406;23.226;2022-12-07T08:35:16;99886.81;;;8.36;100.00
8941;BME280;4505;43.406;23.226;2022-12-07T08:37:44;99878.31;;;8.28;100.00
8941;BME280;4505;43.406;23.226;2022-12-07T08:40:11;99876.09;;;8.25;100.00
8941;BME280;4505;43.406;23.226;2022-12-07T08:42:40;99875.16;;;8.44;100.00
8941;BME280;4505;43.406;23.226;2022-12-07T08:45:08;99875.06;;;8.26;100.00
8941;BME280;4505;43.406;23.226;2022-12-07T08:47:35;99872.41;;;8.26;100.00
8941;BME280;4505;43.406;23.226;2022-12-07T08:50:04;99872.75;;;8.36;100.00
8941;BME280;4505;43.406;23.226;2022-12-07T08:52:32;99869.84;;;8.44;100.00
8941;BME280;4505;43.406;23.226;2022-12-07T08:55:02;99869.00;;;8.75;100.00
8941;BME280;4505;43.406;23.226;2022-12-07T08:57:30;99862.91;;;8.92;100.00
8941;BME280;4505;43.406;23.226;2022-12-07T08:59:58;99861.44;;;8.53;100.00
8941;BME280;4505;43.406;23.226;2022-12-07T09:02:27;99862.69;;;7.82;100.00
8941;BME280;4505;43.406;23.226;2022-12-07T09:04:53;99856.44;;;8.39;100.00
8941;BME280;4505;43.406;23.226;2022-12-07T09:07:20;99854.75;;;8.51;100.00
8941;BME280;4505;43.406;23.226;2022-12-07T09:10:02;99852.91;;;8.27;100.00
8941;BME280;4505;43.406;23.226;2022-12-07T09:12:29;99854.34;;;8.47;100.00
8941;BME280;4505;43.406;23.226;2022-12-07T09:15:10;99849.59;;;8.31;100.00
8941;BME280;4505;43.406;23.226;2022-12-07T09:17:37;99846.09;;;8.62;100.00
8941;BME280;4505;43.406;23.226;2022-12-07T09:20:04;99840.88;;;8.73;100.00
8941;BME280;4505;43.406;23.226;2022-12-07T09:22:31;99843.44;;;8.62;100.00
8941;BME280;4505;43.406;23.226;2022-12-07T09:24:58;99835.09;;;8.83;100.00
8941;BME280;4505;43.406;23.226;2022-12-07T09:27:29;99826.34;;;8.83;100.00
8941;BME280;4505;43.406;23.226;2022-12-07T09:30:00;99818.84;;;8.98;100.00
8941;BME280;4505;43.406;23.226;2022-12-07T09:32:41;99816.91;;;8.68;100.00
8941;BME280;4505;43.406;23.226;2022-12-07T09:35:08;99811.75;;;8.73;100.00
8941;BME280;4505;43.406;23.226;2022-12-07T09:37:36;99823.19;;;8.49;100.00
8941;BME280;4505;43.406;23.226;2022-12-07T09:40:04;99819.75;;;8.49;100.00
8941;BME280;4505;43.406;23.226;2022-12-07T09:42:34;99816.41;;;8.96;100.00
8941;BME280;4505;43.406;23.226;2022-12-07T09:45:04;99818.13;;;8.91;100.00
8941;BME280;4505;43.406;23.226;2022-12-07T09:47:31;99816.50;;;9.08;100.00
8941;BME280;4505;43.406;23.226;2022-12-07T09:50:03;99815.72;;;8.40;100.00
8941;BME280;4505;43.406;23.226;2022-12-07T09:52:30;99810.81;;;8.43;100.00
8941;BME280;4505;43.406;23.226;2022-12-07T09:55:19;99792.28;;;8.68;100.00
8941;BME280;4505;43.406;23.226;2022-12-07T09:57:54;99796.91;;;8.30;100.00
8941;BME280;4505;43.406;23.226;2022-12-07T10:00:50;99796.75;;;8.67;100.00
8941;BME280;4505;43.406;23.226;2022-12-07T10:03:20;99794.94;;;8.86;100.00
8941;BME280;4505;43.406;23.226;2022-12-07T10:05:47;99793.06;;;8.50;100.00
8941;BME280;4505;43.406;23.226;2022-12-07T10:08:15;99800.41;;;8.17;100.00
8941;BME280;4505;43.406;23.226;2022-12-07T10:10:45;99796.53;;;8.20;100.00
8941;BME280;4505;43.406;23.226;2022-12-07T10:13:18;99795.31;;;8.47;100.00
8941;BME280;4505;43.406;23.226;2022-12-07T10:15:53;99785.22;;;8.06;100.00
8941;BME280;4505;43.406;23.226;2022-12-07T10:18:27;99781.19;;;8.35;100.00
8941;BME280;4505;43.406;23.226;2022-12-07T10:23:43;99769.25;;;8.26;100.00
8941;BME280;4505;43.406;23.226;2022-12-07T10:26:29;99769.03;;;8.27;100.00
8941;BME280;4505;43.406;23.226;2022-12-07T10:28:59;99778.69;;;7.84;100.00
8941;BME280;4505;43.406;23.226;2022-12-07T10:31:27;99767.63;;;7.94;100.00
8941;BME280;4505;43.406;23.226;2022-12-07T10:33:54;99768.16;;;7.47;100.00
8941;BME280;4505;43.406;23.226;2022-12-07T10:36:23;99769.66;;;7.23;100.00
8941;BME280;4505;43.406;23.226;2022-12-07T10:38:51;99770.72;;;7.15;100.00
8941;BME280;4505;43.406;23.226;2022-12-07T10:41:18;99767.47;;;7.20;100.00
8941;BME280;4505;43.406;23.226;2022-12-07T10:43:49;99764.19;;;6.67;100.00
8941;BME280;4505;43.406;23.226;2022-12-07T10:49:07;99751.50;;;6.95;100.00
8941;BME280;4505;43.406;23.226;2022-12-07T10:51:38;99759.03;;;6.98;100.00
8941;BME280;4505;43.406;23.226;2022-12-07T10:54:25;99747.66;;;6.98;100.00
8941;BME280;4505;43.406;23.226;2022-12-07T10:56:58;99745.16;;;7.09;100.00
8941;BME280;4505;43.406;23.226;2022-12-07T10:59:37;99742.44;;;6.78;100.00
8941;BME280;4505;43.406;23.226;2022-12-07T11:02:11;99739.63;;;6.60;100.00
8941;BME280;4505;43.406;23.226;2022-12-07T11:04:54;99749.75;;;6.70;100.00
8941;BME280;4505;43.406;23.226;2022-12-07T11:07:28;99740.03;;;6.64;100.00
8941;BME280;4505;43.406;23.226;2022-12-07T11:10:02;99735.13;;;6.80;100.00
8941;BME280;4505;43.406;23.226;2022-12-07T11:12:39;99737.97;;;6.79;100.00
8941;BME280;4505;43.406;23.226;2022-12-07T11:15:12;99730.81;;;6.86;100.00
8941;BME280;4505;43.406;23.226;2022-12-07T11:17:54;99721.16;;;6.60;100.00
8941;BME280;4505;43.406;23.226;2022-12-07T11:20:33;99717.09;;;6.71;100.00
8941;BME280;4505;43.406;23.226;2022-12-07T11:23:03;99712.44;;;6.66;100.00
8941;BME280;4505;43.406;23.226;2022-12-07T11:25:34;99708.38;;;6.57;100.00
8941;BME280;4505;43.406;23.226;2022-12-07T11:28:13;99697.56;;;6.78;100.00
8941;BME280;4505;43.406;23.226;2022-12-07T11:30:48;99702.84;;;6.78;100.00
8941;BME280;4505;43.406;23.226;2022-12-07T11:33:19;99695.53;;;6.80;100.00
8941;BME280;4505;43.406;23.226;2022-12-07T11:35:53;99688.81;;;6.78;100.00
8941;BME280;4505;43.406;23.226;2022-12-07T11:38:31;99676.38;;;7.29;100.00
8941;BME280;4505;43.406;23.226;2022-12-07T11:41:03;99676.94;;;7.69;100.00
8941;BME280;4505;43.406;23.226;2022-12-07T11:43:50;99669.69;;;7.82;100.00
8941;BME280;4505;43.406;23.226;2022-12-07T11:46:18;99664.47;;;8.00;100.00
8941;BME280;4505;43.406;23.226;2022-12-07T11:48:47;99664.75;;;7.92;100.00
8941;BME280;4505;43.406;23.226;2022-12-07T11:51:17;99666.00;;;8.08;100.00
8941;BME280;4505;43.406;23.226;2022-12-07T11:53:46;99676.91;;;7.75;100.00
8941;BME280;4505;43.406;23.226;2022-12-07T11:56:16;99675.59;;;7.28;100.00
8941;BME280;4505;43.406;23.226;2022-12-07T11:58:49;99680.16;;;7.46;100.00
8941;BME280;4505;43.406;23.226;2022-12-07T12:01:25;99686.88;;;7.42;100.00
8941;BME280;4505;43.406;23.226;2022-12-07T12:03:53;99688.25;;;7.51;100.00
8941;BME280;4505;43.406;23.226;2022-12-07T12:06:24;99689.38;;;6.99;100.00
8941;BME280;4505;43.406;23.226;2022-12-07T12:08:52;99689.41;;;7.31;100.00
8941;BME280;4505;43.406;23.226;2022-12-07T12:11:26;99679.50;;;7.51;100.00
8941;BME280;4505;43.406;23.226;2022-12-07T12:14:04;99679.06;;;7.85;100.00
8941;BME280;4505;43.406;23.226;2022-12-07T12:16:40;99681.84;;;7.34;100.00
8941;BME280;4505;43.406;23.226;2022-12-07T12:19:15;99683.44;;;7.42;100.00
8941;BME280;4505;43.406;23.226;2022-12-07T12:21:47;99678.41;;;7.34;100.00
8941;BME280;4505;43.406;23.226;2022-12-07T12:24:16;99674.63;;;7.16;100.00
8941;BME280;4505;43.406;23.226;2022-12-07T12:26:48;99678.91;;;7.17;100.00
8941;BME280;4505;43.406;23.226;2022-12-07T12:29:19;99679.47;;;6.88;100.00
8941;BME280;4505;43.406;23.226;2022-12-07T12:32:03;99676.97;;;7.00;100.00
8941;BME280;4505;43.406;23.226;2022-12-07T12:34:32;99672.41;;;6.82;100.00
8941;BME280;4505;43.406;23.226;2022-12-07T12:37:01;99670.84;;;7.06;100.00
8941;BME280;4505;43.406;23.226;2022-12-07T12:39:27;99667.91;;;7.52;100.00
8941;BME280;4505;43.406;23.226;2022-12-07T12:41:57;99666.28;;;7.82;100.00
8941;BME280;4505;43.406;23.226;2022-12-07T12:50:11;99668.97;;;7.13;100.00
8941;BME280;4505;43.406;23.226;2022-12-07T12:58:29;99673.72;;;6.98;100.00
8941;BME280;4505;43.406;23.226;2022-12-07T13:03:51;99683.66;;;7.40;100.00
8941;BME280;4505;43.406;23.226;2022-12-07T13:06:19;99680.38;;;7.94;100.00
8941;BME280;4505;43.406;23.226;2022-12-07T13:08:46;99680.84;;;7.60;100.00
8941;BME280;4505;43.406;23.226;2022-12-07T13:11:17;99680.84;;;7.60;100.00
8941;BME280;4505;43.406;23.226;2022-12-07T13:13:46;99680.09;;;7.21;100.00
8941;BME280;4505;43.406;23.226;2022-12-07T13:21:50;99679.84;;;6.92;100.00
8941;BME280;4505;43.406;23.226;2022-12-07T13:24:17;99679.47;;;6.88;100.00
8941;BME280;4505;43.406;23.226;2022-12-07T13:26:45;99682.72;;;6.90;100.00
8941;BME280;4505;43.406;23.226;2022-12-07T13:29:14;99690.06;;;6.75;100.00
8941;BME280;4505;43.406;23.226;2022-12-07T13:31:42;99698.38;;;6.85;100.00
8941;BME280;4505;43.406;23.226;2022-12-07T13:34:29;99691.63;;;6.89;100.00
8941;BME280;4505;43.406;23.226;2022-12-07T13:36:56;99695.94;;;6.84;100.00
8941;BME280;4505;43.406;23.226;2022-12-07T13:39:23;99695.84;;;6.97;100.00
8941;BME280;4505;43.406;23.226;2022-12-07T13:41:51;99693.63;;;6.94;100.00
8941;BME280;4505;43.406;23.226;2022-12-07T13:44:19;99686.13;;;6.97;100.00
8941;BME280;4505;43.406;23.226;2022-12-07T13:46:52;99697.28;;;6.99;100.00
8941;BME280;4505;43.406;23.226;2022-12-07T13:49:22;99701.66;;;7.18;100.00
8941;BME280;4505;43.406;23.226;2022-12-07T13:51:49;99705.50;;;7.22;100.00